sensor_id;sensor_type;location;lat;lon;timestamp;P1;durP1;ratioP1;P2;durP2;ratioP2
7487;SDS011;3785;52.260;4.728;2023-05-02T00:02:35;4.22;;;2.42;;
7487;SDS011;3785;52.260;4.728;2023-05-02T00:05:56;6.63;;;2.72;;
7487;SDS011;3785;52.260;4.728;2023-05-02T00:09:16;8.52;;;3.03;;
7487;SDS011;3785;52.260;4.728;2023-05-02T00:12:37;7.82;;;3.33;;
7487;SDS011;3785;52.260;4.728;2023-05-02T00:15:57;6.03;;;2.90;;
7487;SDS011;3785;52.260;4.728;2023-05-02T00:19:18;6.90;;;3.58;;
7487;SDS011;3785;52.260;4.728;2023-05-02T00:22:38;7.22;;;3.60;;
7487;SDS011;3785;52.260;4.728;2023-05-02T00:25:59;7.20;;;3.75;;
7487;SDS011;3785;52.260;4.728;2023-05-02T00:29:20;10.23;;;4.88;;
7487;SDS011;3785;52.260;4.728;2023-05-02T00:32:40;9.25;;;4.43;;
7487;SDS011;3785;52.260;4.728;2023-05-02T00:36:01;6.47;;;4.07;;
7487;SDS011;3785;52.260;4.728;2023-05-02T00:39:22;9.07;;;4.47;;
7487;SDS011;3785;52.260;4.728;2023-05-02T00:42:43;5.40;;;3.28;;
7487;SDS011;3785;52.260;4.728;2023-05-02T00:46:04;6.60;;;3.38;;
7487;SDS011;3785;52.260;4.728;2023-05-02T00:49:24;5.00;;;2.60;;
7487;SDS011;3785;52.260;4.728;2023-05-02T00:52:45;8.00;;;2.30;;
7487;SDS011;3785;52.260;4.728;2023-05-02T00:56:06;4.47;;;2.33;;
7487;SDS011;3785;52.260;4.728;2023-05-02T00:59:27;6.57;;;2.85;;
7487;SDS011;3785;52.260;4.728;2023-05-02T01:02:52;4.63;;;2.67;;
7487;SDS011;3785;52.260;4.728;2023-05-02T01:06:30;6.65;;;3.17;;
7487;SDS011;3785;52.260;4.728;2023-05-02T01:10:08;5.47;;;2.30;;
7487;SDS011;3785;52.260;4.728;2023-05-02T01:13:48;3.08;;;1.67;;
7487;SDS011;3785;52.260;4.728;2023-05-02T01:17:11;4.55;;;1.85;;
7487;SDS011;3785;52.260;4.728;2023-05-02T01:20:35;6.10;;;1.83;;
7487;SDS011;3785;52.260;4.728;2023-05-02T01:24:06;3.42;;;1.33;;
7487;SDS011;3785;52.260;4.728;2023-05-02T01:31:25;5.38;;;1.27;;
7487;SDS011;3785;52.260;4.728;2023-05-02T01:34:48;4.57;;;1.45;;
7487;SDS011;3785;52.260;4.728;2023-05-02T01:38:11;2.95;;;1.20;;
7487;SDS011;3785;52.260;4.728;2023-05-02T01:41:34;2.70;;;1.10;;
7487;SDS011;3785;52.260;4.728;2023-05-02T01:44:55;1.50;;;0.80;;
7487;SDS011;3785;52.260;4.728;2023-05-02T01:48:18;2.75;;;0.80;;
7487;SDS011;3785;52.260;4.728;2023-05-02T01:51:43;3.25;;;1.20;;
7487;SDS011;3785;52.260;4.728;2023-05-02T01:55:08;2.78;;;1.10;;
7487;SDS011;3785;52.260;4.728;2023-05-02T01:58:31;0.95;;;0.77;;
7487;SDS011;3785;52.260;4.728;2023-05-02T02:01:52;2.47;;;0.68;;
7487;SDS011;3785;52.260;4.728;2023-05-02T02:05:13;2.28;;;0.88;;
7487;SDS011;3785;52.260;4.728;2023-05-02T02:08:35;4.53;;;1.17;;
7487;SDS011;3785;52.260;4.728;2023-05-02T02:12:14;4.63;;;1.40;;
7487;SDS011;3785;52.260;4.728;2023-05-02T02:15:36;5.05;;;1.27;;
7487;SDS011;3785;52.260;4.728;2023-05-02T02:18:58;2.47;;;0.80;;
7487;SDS011;3785;52.260;4.728;2023-05-02T02:22:25;4.05;;;0.88;;
7487;SDS011;3785;52.260;4.728;2023-05-02T02:25:46;3.92;;;1.15;;
7487;SDS011;3785;52.260;4.728;2023-05-02T02:29:09;5.25;;;1.00;;
7487;SDS011;3785;52.260;4.728;2023-05-02T02:32:30;5.18;;;0.90;;
7487;SDS011;3785;52.260;4.728;2023-05-02T02:35:52;2.42;;;0.90;;
7487;SDS011;3785;52.260;4.728;2023-05-02T02:43:23;3.22;;;1.27;;
7487;SDS011;3785;52.260;4.728;2023-05-02T02:47:10;1.70;;;0.68;;
7487;SDS011;3785;52.260;4.728;2023-05-02T02:57:46;1.55;;;0.70;;
7487;SDS011;3785;52.260;4.728;2023-05-02T03:01:15;3.22;;;0.90;;
7487;SDS011;3785;52.260;4.728;2023-05-02T03:04:39;3.88;;;1.00;;
7487;SDS011;3785;52.260;4.728;2023-05-02T03:08:01;4.55;;;0.82;;
7487;SDS011;3785;52.260;4.728;2023-05-02T03:11:21;2.50;;;0.82;;
7487;SDS011;3785;52.260;4.728;2023-05-02T03:14:42;3.60;;;0.95;;
7487;SDS011;3785;52.260;4.728;2023-05-02T03:18:02;3.72;;;1.00;;
7487;SDS011;3785;52.260;4.728;2023-05-02T03:21:23;1.77;;;0.80;;
7487;SDS011;3785;52.260;4.728;2023-05-02T03:24:44;1.48;;;0.70;;
7487;SDS011;3785;52.260;4.728;2023-05-02T03:28:04;2.65;;;0.85;;
7487;SDS011;3785;52.260;4.728;2023-05-02T03:31:25;3.58;;;0.70;;
7487;SDS011;3785;52.260;4.728;2023-05-02T03:34:45;2.35;;;1.00;;
7487;SDS011;3785;52.260;4.728;2023-05-02T03:38:06;2.80;;;0.90;;
7487;SDS011;3785;52.260;4.728;2023-05-02T03:41:26;4.32;;;0.75;;
7487;SDS011;3785;52.260;4.728;2023-05-02T03:44:47;2.72;;;0.82;;
7487;SDS011;3785;52.260;4.728;2023-05-02T03:48:11;1.63;;;0.73;;
7487;SDS011;3785;52.260;4.728;2023-05-02T03:51:32;2.95;;;1.10;;
7487;SDS011;3785;52.260;4.728;2023-05-02T03:54:53;1.80;;;0.65;;
7487;SDS011;3785;52.260;4.728;2023-05-02T03:58:13;2.25;;;0.90;;
7487;SDS011;3785;52.260;4.728;2023-05-02T04:01:34;3.65;;;1.00;;
7487;SDS011;3785;52.260;4.728;2023-05-02T04:04:54;1.73;;;0.68;;
7487;SDS011;3785;52.260;4.728;2023-05-02T04:08:15;2.97;;;0.90;;
7487;SDS011;3785;52.260;4.728;2023-05-02T04:11:36;4.63;;;1.05;;
7487;SDS011;3785;52.260;4.728;2023-05-02T04:14:56;1.77;;;0.80;;
7487;SDS011;3785;52.260;4.728;2023-05-02T04:18:17;4.55;;;1.10;;
7487;SDS011;3785;52.260;4.728;2023-05-02T04:21:37;2.28;;;0.95;;
7487;SDS011;3785;52.260;4.728;2023-05-02T04:24:58;2.13;;;0.82;;
7487;SDS011;3785;52.260;4.728;2023-05-02T04:28:20;1.95;;;1.05;;
7487;SDS011;3785;52.260;4.728;2023-05-02T04:31:41;2.42;;;1.08;;
7487;SDS011;3785;52.260;4.728;2023-05-02T04:35:01;5.18;;;1.30;;
7487;SDS011;3785;52.260;4.728;2023-05-02T04:38:22;2.67;;;1.13;;
7487;SDS011;3785;52.260;4.728;2023-05-02T04:41:43;4.65;;;1.52;;
7487;SDS011;3785;52.260;4.728;2023-05-02T04:45:04;2.38;;;1.30;;
7487;SDS011;3785;52.260;4.728;2023-05-02T04:48:25;3.70;;;1.48;;
7487;SDS011;3785;52.260;4.728;2023-05-02T04:51:46;7.68;;;1.40;;
7487;SDS011;3785;52.260;4.728;2023-05-02T04:55:06;3.53;;;1.23;;
7487;SDS011;3785;52.260;4.728;2023-05-02T04:58:27;5.28;;;1.45;;
7487;SDS011;3785;52.260;4.728;2023-05-02T05:01:48;6.72;;;1.45;;
7487;SDS011;3785;52.260;4.728;2023-05-02T05:05:08;4.50;;;1.50;;
7487;SDS011;3785;52.260;4.728;2023-05-02T05:08:29;2.95;;;1.25;;
7487;SDS011;3785;52.260;4.728;2023-05-02T05:11:49;3.60;;;1.35;;
7487;SDS011;3785;52.260;4.728;2023-05-02T05:15:10;5.18;;;1.63;;
7487;SDS011;3785;52.260;4.728;2023-05-02T05:18:30;5.93;;;1.25;;
7487;SDS011;3785;52.260;4.728;2023-05-02T05:21:51;6.75;;;1.50;;
7487;SDS011;3785;52.260;4.728;2023-05-02T05:25:12;3.25;;;1.30;;
7487;SDS011;3785;52.260;4.728;2023-05-02T05:28:32;4.65;;;1.33;;
7487;SDS011;3785;52.260;4.728;2023-05-02T05:31:53;4.47;;;1.85;;
7487;SDS011;3785;52.260;4.728;2023-05-02T05:35:13;4.18;;;1.75;;
7487;SDS011;3785;52.260;4.728;2023-05-02T05:38:34;2.40;;;1.13;;
7487;SDS011;3785;52.260;4.728;2023-05-02T05:41:55;5.00;;;1.38;;
7487;SDS011;3785;52.260;4.728;2023-05-02T05:45:16;4.03;;;1.17;;
7487;SDS011;3785;52.260;4.728;2023-05-02T05:48:38;6.93;;;1.58;;
7487;SDS011;3785;52.260;4.728;2023-05-02T05:51:59;4.25;;;1.52;;
7487;SDS011;3785;52.260;4.728;2023-05-02T05:55:20;3.00;;;1.10;;
7487;SDS011;3785;52.260;4.728;2023-05-02T05:58:40;5.40;;;1.23;;
7487;SDS011;3785;52.260;4.728;2023-05-02T06:02:03;7.00;;;1.38;;
7487;SDS011;3785;52.260;4.728;2023-05-02T06:05:24;1.40;;;0.90;;
7487;SDS011;3785;52.260;4.728;2023-05-02T06:08:44;3.15;;;1.23;;
7487;SDS011;3785;52.260;4.728;2023-05-02T06:12:05;4.63;;;1.40;;
7487;SDS011;3785;52.260;4.728;2023-05-02T06:15:26;4.50;;;1.30;;
7487;SDS011;3785;52.260;4.728;2023-05-02T06:18:46;4.50;;;1.20;;
7487;SDS011;3785;52.260;4.728;2023-05-02T06:22:13;4.70;;;1.25;;
7487;SDS011;3785;52.260;4.728;2023-05-02T06:25:36;2.90;;;1.10;;
7487;SDS011;3785;52.260;4.728;2023-05-02T06:28:57;2.83;;;1.05;;
7487;SDS011;3785;52.260;4.728;2023-05-02T06:32:17;3.92;;;1.33;;
7487;SDS011;3785;52.260;4.728;2023-05-02T06:35:38;2.80;;;0.98;;
7487;SDS011;3785;52.260;4.728;2023-05-02T06:39:00;2.90;;;1.00;;
7487;SDS011;3785;52.260;4.728;2023-05-02T06:42:20;3.17;;;1.00;;
7487;SDS011;3785;52.260;4.728;2023-05-02T06:45:41;2.13;;;0.90;;
7487;SDS011;3785;52.260;4.728;2023-05-02T06:49:02;2.65;;;0.75;;
7487;SDS011;3785;52.260;4.728;2023-05-02T06:52:22;5.35;;;1.00;;
7487;SDS011;3785;52.260;4.728;2023-05-02T06:55:43;2.15;;;1.05;;
7487;SDS011;3785;52.260;4.728;2023-05-02T06:59:05;2.33;;;1.00;;
7487;SDS011;3785;52.260;4.728;2023-05-02T07:02:26;1.85;;;0.88;;
7487;SDS011;3785;52.260;4.728;2023-05-02T07:05:46;3.92;;;1.00;;
7487;SDS011;3785;52.260;4.728;2023-05-02T07:09:07;1.77;;;0.90;;
7487;SDS011;3785;52.260;4.728;2023-05-02T07:12:28;1.75;;;0.73;;
7487;SDS011;3785;52.260;4.728;2023-05-02T07:15:48;3.22;;;1.00;;
7487;SDS011;3785;52.260;4.728;2023-05-02T07:19:09;1.30;;;0.68;;
7487;SDS011;3785;52.260;4.728;2023-05-02T07:22:29;6.13;;;1.55;;
7487;SDS011;3785;52.260;4.728;2023-05-02T07:25:50;3.88;;;0.80;;
7487;SDS011;3785;52.260;4.728;2023-05-02T07:29:11;4.38;;;0.80;;
7487;SDS011;3785;52.260;4.728;2023-05-02T07:32:31;2.83;;;0.80;;
7487;SDS011;3785;52.260;4.728;2023-05-02T07:35:52;3.15;;;0.80;;
7487;SDS011;3785;52.260;4.728;2023-05-02T07:39:13;3.03;;;0.70;;
7487;SDS011;3785;52.260;4.728;2023-05-02T07:42:33;2.45;;;0.80;;
7487;SDS011;3785;52.260;4.728;2023-05-02T07:45:55;1.40;;;0.77;;
7487;SDS011;3785;52.260;4.728;2023-05-02T07:49:16;2.22;;;1.00;;
7487;SDS011;3785;52.260;4.728;2023-05-02T07:52:36;2.05;;;0.82;;
7487;SDS011;3785;52.260;4.728;2023-05-02T07:55:57;4.18;;;1.10;;
7487;SDS011;3785;52.260;4.728;2023-05-02T08:03:29;2.20;;;0.80;;
7487;SDS011;3785;52.260;4.728;2023-05-02T08:06:50;1.25;;;0.52;;
7487;SDS011;3785;52.260;4.728;2023-05-02T08:10:10;1.85;;;0.60;;
7487;SDS011;3785;52.260;4.728;2023-05-02T08:13:31;2.28;;;0.70;;
7487;SDS011;3785;52.260;4.728;2023-05-02T08:16:51;3.63;;;0.82;;
7487;SDS011;3785;52.260;4.728;2023-05-02T08:20:12;1.33;;;0.70;;
7487;SDS011;3785;52.260;4.728;2023-05-02T08:23:33;0.73;;;0.50;;
7487;SDS011;3785;52.260;4.728;2023-05-02T08:26:53;4.22;;;0.77;;
7487;SDS011;3785;52.260;4.728;2023-05-02T08:30:14;1.30;;;0.70;;
7487;SDS011;3785;52.260;4.728;2023-05-02T08:33:35;1.65;;;0.70;;
7487;SDS011;3785;52.260;4.728;2023-05-02T08:36:55;2.50;;;0.98;;
7487;SDS011;3785;52.260;4.728;2023-05-02T08:40:16;2.10;;;0.75;;
7487;SDS011;3785;52.260;4.728;2023-05-02T08:43:37;4.53;;;0.93;;
7487;SDS011;3785;52.260;4.728;2023-05-02T08:46:59;1.58;;;0.40;;
7487;SDS011;3785;52.260;4.728;2023-05-02T08:50:19;2.17;;;0.70;;
7487;SDS011;3785;52.260;4.728;2023-05-02T08:53:40;1.48;;;0.70;;
7487;SDS011;3785;52.260;4.728;2023-05-02T08:57:02;3.00;;;1.00;;
7487;SDS011;3785;52.260;4.728;2023-05-02T09:00:23;1.15;;;0.60;;
7487;SDS011;3785;52.260;4.728;2023-05-02T09:03:45;3.47;;;1.45;;
7487;SDS011;3785;52.260;4.728;2023-05-02T09:07:06;1.35;;;0.73;;
7487;SDS011;3785;52.260;4.728;2023-05-02T09:10:27;2.35;;;0.85;;
7487;SDS011;3785;52.260;4.728;2023-05-02T09:13:48;1.88;;;0.70;;
7487;SDS011;3785;52.260;4.728;2023-05-02T09:17:10;2.55;;;0.80;;
7487;SDS011;3785;52.260;4.728;2023-05-02T09:20:31;3.50;;;1.13;;
7487;SDS011;3785;52.260;4.728;2023-05-02T09:23:59;3.90;;;0.93;;
7487;SDS011;3785;52.260;4.728;2023-05-02T09:27:22;1.98;;;0.70;;
7487;SDS011;3785;52.260;4.728;2023-05-02T09:30:43;2.83;;;0.98;;
7487;SDS011;3785;52.260;4.728;2023-05-02T09:34:16;1.23;;;0.60;;
7487;SDS011;3785;52.260;4.728;2023-05-02T09:37:36;2.95;;;0.70;;
7487;SDS011;3785;52.260;4.728;2023-05-02T09:41:00;2.67;;;0.73;;
7487;SDS011;3785;52.260;4.728;2023-05-02T09:44:23;2.78;;;0.88;;
7487;SDS011;3785;52.260;4.728;2023-05-02T09:47:46;2.70;;;1.10;;
7487;SDS011;3785;52.260;4.728;2023-05-02T09:51:10;3.72;;;1.23;;
7487;SDS011;3785;52.260;4.728;2023-05-02T09:54:36;3.30;;;1.20;;
7487;SDS011;3785;52.260;4.728;2023-05-02T09:58:01;2.35;;;1.00;;
7487;SDS011;3785;52.260;4.728;2023-05-02T10:01:22;4.50;;;1.48;;
7487;SDS011;3785;52.260;4.728;2023-05-02T10:04:45;3.22;;;1.00;;
7487;SDS011;3785;52.260;4.728;2023-05-02T10:08:07;1.13;;;0.70;;
7487;SDS011;3785;52.260;4.728;2023-05-02T10:11:29;3.95;;;1.40;;
7487;SDS011;3785;52.260;4.728;2023-05-02T10:14:52;4.53;;;0.98;;
7487;SDS011;3785;52.260;4.728;2023-05-02T10:18:20;1.92;;;0.93;;
7487;SDS011;3785;52.260;4.728;2023-05-02T10:21:44;3.63;;;1.10;;
7487;SDS011;3785;52.260;4.728;2023-05-02T10:25:05;1.98;;;1.05;;
7487;SDS011;3785;52.260;4.728;2023-05-02T10:28:26;1.77;;;0.80;;
7487;SDS011;3785;52.260;4.728;2023-05-02T10:31:47;3.45;;;0.80;;
7487;SDS011;3785;52.260;4.728;2023-05-02T10:35:08;3.35;;;1.20;;
7487;SDS011;3785;52.260;4.728;2023-05-02T10:38:29;3.13;;;1.00;;
7487;SDS011;3785;52.260;4.728;2023-05-02T10:41:51;3.60;;;1.20;;
7487;SDS011;3785;52.260;4.728;2023-05-02T10:45:32;3.63;;;1.00;;
7487;SDS011;3785;52.260;4.728;2023-05-02T10:49:07;4.38;;;0.85;;
7487;SDS011;3785;52.260;4.728;2023-05-02T10:59:35;2.53;;;0.95;;
7487;SDS011;3785;52.260;4.728;2023-05-02T11:02:56;1.58;;;1.10;;
7487;SDS011;3785;52.260;4.728;2023-05-02T11:06:17;3.05;;;1.30;;
7487;SDS011;3785;52.260;4.728;2023-05-02T11:09:38;2.70;;;0.93;;
7487;SDS011;3785;52.260;4.728;2023-05-02T11:12:58;2.05;;;0.90;;
7487;SDS011;3785;52.260;4.728;2023-05-02T11:16:20;2.78;;;0.70;;
7487;SDS011;3785;52.260;4.728;2023-05-02T11:26:40;1.38;;;0.70;;
7487;SDS011;3785;52.260;4.728;2023-05-02T11:30:07;2.15;;;0.70;;
7487;SDS011;3785;52.260;4.728;2023-05-02T11:33:28;3.38;;;1.15;;
7487;SDS011;3785;52.260;4.728;2023-05-02T11:36:49;2.60;;;0.90;;
7487;SDS011;3785;52.260;4.728;2023-05-02T11:40:10;4.07;;;1.30;;
7487;SDS011;3785;52.260;4.728;2023-05-02T11:43:34;2.08;;;1.20;;
7487;SDS011;3785;52.260;4.728;2023-05-02T11:46:54;1.52;;;0.90;;
7487;SDS011;3785;52.260;4.728;2023-05-02T11:50:15;2.70;;;0.98;;
7487;SDS011;3785;52.260;4.728;2023-05-02T11:53:38;2.90;;;1.20;;
7487;SDS011;3785;52.260;4.728;2023-05-02T11:57:00;2.80;;;1.55;;
7487;SDS011;3785;52.260;4.728;2023-05-02T12:00:25;3.38;;;1.00;;
7487;SDS011;3785;52.260;4.728;2023-05-02T12:03:47;2.92;;;1.00;;
7487;SDS011;3785;52.260;4.728;2023-05-02T12:07:08;2.58;;;1.00;;
7487;SDS011;3785;52.260;4.728;2023-05-02T12:10:35;3.58;;;1.10;;
7487;SDS011;3785;52.260;4.728;2023-05-02T12:13:56;4.75;;;1.15;;
7487;SDS011;3785;52.260;4.728;2023-05-02T12:17:17;2.60;;;1.00;;
7487;SDS011;3785;52.260;4.728;2023-05-02T12:20:37;2.47;;;0.93;;
7487;SDS011;3785;52.260;4.728;2023-05-02T12:23:59;3.22;;;1.00;;
7487;SDS011;3785;52.260;4.728;2023-05-02T12:27:21;1.73;;;1.20;;
7487;SDS011;3785;52.260;4.728;2023-05-02T12:30:41;4.45;;;1.27;;
7487;SDS011;3785;52.260;4.728;2023-05-02T12:34:02;3.05;;;1.30;;
7487;SDS011;3785;52.260;4.728;2023-05-02T12:37:23;4.32;;;1.75;;
7487;SDS011;3785;52.260;4.728;2023-05-02T12:40:45;3.72;;;1.10;;
7487;SDS011;3785;52.260;4.728;2023-05-02T12:44:34;3.53;;;1.20;;
7487;SDS011;3785;52.260;4.728;2023-05-02T12:47:56;1.80;;;1.00;;
7487;SDS011;3785;52.260;4.728;2023-05-02T12:51:20;2.53;;;1.25;;
7487;SDS011;3785;52.260;4.728;2023-05-02T12:54:42;3.15;;;1.30;;
7487;SDS011;3785;52.260;4.728;2023-05-02T12:58:03;6.28;;;1.58;;
7487;SDS011;3785;52.260;4.728;2023-05-02T13:01:25;4.00;;;1.40;;
7487;SDS011;3785;52.260;4.728;2023-05-02T13:04:45;3.65;;;1.10;;
7487;SDS011;3785;52.260;4.728;2023-05-02T13:08:06;3.17;;;1.48;;
7487;SDS011;3785;52.260;4.728;2023-05-02T13:11:27;5.40;;;1.40;;
7487;SDS011;3785;52.260;4.728;2023-05-02T13:14:47;3.63;;;1.13;;
7487;SDS011;3785;52.260;4.728;2023-05-02T13:18:09;3.22;;;1.20;;
7487;SDS011;3785;52.260;4.728;2023-05-02T13:21:29;3.25;;;1.33;;
7487;SDS011;3785;52.260;4.728;2023-05-02T13:24:50;2.90;;;1.30;;
7487;SDS011;3785;52.260;4.728;2023-05-02T13:28:11;3.20;;;1.40;;
7487;SDS011;3785;52.260;4.728;2023-05-02T13:31:32;3.28;;;1.20;;
7487;SDS011;3785;52.260;4.728;2023-05-02T13:34:52;3.05;;;1.58;;
7487;SDS011;3785;52.260;4.728;2023-05-02T13:38:13;3.80;;;1.13;;
7487;SDS011;3785;52.260;4.728;2023-05-02T13:41:34;3.42;;;1.70;;
7487;SDS011;3785;52.260;4.728;2023-05-02T13:44:55;2.15;;;1.25;;
7487;SDS011;3785;52.260;4.728;2023-05-02T13:48:15;3.20;;;1.40;;
7487;SDS011;3785;52.260;4.728;2023-05-02T13:51:36;3.33;;;1.67;;
7487;SDS011;3785;52.260;4.728;2023-05-02T13:54:56;2.92;;;1.17;;
7487;SDS011;3785;52.260;4.728;2023-05-02T13:58:17;2.33;;;1.13;;
7487;SDS011;3785;52.260;4.728;2023-05-02T14:01:37;3.88;;;1.42;;
7487;SDS011;3785;52.260;4.728;2023-05-02T14:04:59;4.50;;;1.30;;
7487;SDS011;3785;52.260;4.728;2023-05-02T14:08:19;4.60;;;1.40;;
7487;SDS011;3785;52.260;4.728;2023-05-02T14:11:40;2.78;;;1.15;;
7487;SDS011;3785;52.260;4.728;2023-05-02T14:15:01;3.60;;;1.25;;
7487;SDS011;3785;52.260;4.728;2023-05-02T14:18:21;4.40;;;1.50;;
7487;SDS011;3785;52.260;4.728;2023-05-02T14:21:42;2.28;;;1.15;;
7487;SDS011;3785;52.260;4.728;2023-05-02T14:25:03;3.80;;;1.33;;
7487;SDS011;3785;52.260;4.728;2023-05-02T14:28:24;1.25;;;0.82;;
7487;SDS011;3785;52.260;4.728;2023-05-02T14:31:46;3.08;;;1.10;;
7487;SDS011;3785;52.260;4.728;2023-05-02T14:35:06;3.65;;;1.15;;
7487;SDS011;3785;52.260;4.728;2023-05-02T14:38:27;2.40;;;1.08;;
7487;SDS011;3785;52.260;4.728;2023-05-02T14:41:48;2.60;;;1.20;;
7487;SDS011;3785;52.260;4.728;2023-05-02T14:45:08;3.33;;;1.15;;
7487;SDS011;3785;52.260;4.728;2023-05-02T14:48:29;2.97;;;1.20;;
7487;SDS011;3785;52.260;4.728;2023-05-02T14:51:50;3.67;;;1.10;;
7487;SDS011;3785;52.260;4.728;2023-05-02T14:55:11;2.08;;;1.17;;
7487;SDS011;3785;52.260;4.728;2023-05-02T14:58:32;2.35;;;1.30;;
7487;SDS011;3785;52.260;4.728;2023-05-02T15:01:52;3.35;;;1.08;;
7487;SDS011;3785;52.260;4.728;2023-05-02T15:05:13;3.33;;;1.10;;
7487;SDS011;3785;52.260;4.728;2023-05-02T15:08:34;4.25;;;0.95;;
7487;SDS011;3785;52.260;4.728;2023-05-02T15:11:54;2.30;;;0.90;;
7487;SDS011;3785;52.260;4.728;2023-05-02T15:15:16;4.18;;;1.10;;
7487;SDS011;3785;52.260;4.728;2023-05-02T15:18:37;3.15;;;0.90;;
7487;SDS011;3785;52.260;4.728;2023-05-02T15:21:57;2.05;;;0.80;;
7487;SDS011;3785;52.260;4.728;2023-05-02T15:25:25;2.90;;;1.02;;
7487;SDS011;3785;52.260;4.728;2023-05-02T15:28:46;3.53;;;0.90;;
7487;SDS011;3785;52.260;4.728;2023-05-02T15:32:06;2.38;;;0.80;;
7487;SDS011;3785;52.260;4.728;2023-05-02T15:35:27;3.22;;;1.17;;
7487;SDS011;3785;52.260;4.728;2023-05-02T15:38:47;1.90;;;0.80;;
7487;SDS011;3785;52.260;4.728;2023-05-02T15:42:08;1.70;;;0.80;;
7487;SDS011;3785;52.260;4.728;2023-05-02T15:45:29;1.60;;;0.70;;
7487;SDS011;3785;52.260;4.728;2023-05-02T15:48:50;1.77;;;0.70;;
7487;SDS011;3785;52.260;4.728;2023-05-02T15:52:11;1.20;;;0.63;;
7487;SDS011;3785;52.260;4.728;2023-05-02T15:55:31;1.42;;;0.60;;
7487;SDS011;3785;52.260;4.728;2023-05-02T15:58:52;4.03;;;0.82;;
7487;SDS011;3785;52.260;4.728;2023-05-02T16:02:13;1.98;;;0.65;;
7487;SDS011;3785;52.260;4.728;2023-05-02T16:05:34;2.60;;;0.70;;
7487;SDS011;3785;52.260;4.728;2023-05-02T16:08:55;3.03;;;0.93;;
7487;SDS011;3785;52.260;4.728;2023-05-02T16:12:15;2.03;;;0.80;;
7487;SDS011;3785;52.260;4.728;2023-05-02T16:15:36;1.70;;;0.70;;
7487;SDS011;3785;52.260;4.728;2023-05-02T16:18:57;2.50;;;0.82;;
7487;SDS011;3785;52.260;4.728;2023-05-02T16:22:18;1.10;;;0.60;;
7487;SDS011;3785;52.260;4.728;2023-05-02T16:25:38;2.10;;;0.70;;
7487;SDS011;3785;52.260;4.728;2023-05-02T16:29:00;2.40;;;0.70;;
7487;SDS011;3785;52.260;4.728;2023-05-02T16:32:21;1.48;;;0.80;;
7487;SDS011;3785;52.260;4.728;2023-05-02T16:35:42;2.08;;;0.85;;
7487;SDS011;3785;52.260;4.728;2023-05-02T16:39:03;3.10;;;1.08;;
7487;SDS011;3785;52.260;4.728;2023-05-02T16:42:23;1.88;;;0.82;;
7487;SDS011;3785;52.260;4.728;2023-05-02T16:45:44;2.28;;;1.13;;
7487;SDS011;3785;52.260;4.728;2023-05-02T16:49:06;2.25;;;0.95;;
7487;SDS011;3785;52.260;4.728;2023-05-02T16:52:26;2.03;;;0.90;;
7487;SDS011;3785;52.260;4.728;2023-05-02T16:55:47;1.35;;;0.77;;
7487;SDS011;3785;52.260;4.728;2023-05-02T16:59:08;2.30;;;0.80;;
7487;SDS011;3785;52.260;4.728;2023-05-02T17:02:28;4.30;;;1.08;;
7487;SDS011;3785;52.260;4.728;2023-05-02T17:05:49;1.83;;;0.90;;
7487;SDS011;3785;52.260;4.728;2023-05-02T17:09:09;2.75;;;0.73;;
7487;SDS011;3785;52.260;4.728;2023-05-02T17:12:30;3.67;;;0.93;;
7487;SDS011;3785;52.260;4.728;2023-05-02T17:15:50;1.48;;;1.08;;
7487;SDS011;3785;52.260;4.728;2023-05-02T17:19:12;1.85;;;1.00;;
7487;SDS011;3785;52.260;4.728;2023-05-02T17:22:33;2.47;;;0.70;;
7487;SDS011;3785;52.260;4.728;2023-05-02T17:25:54;1.23;;;0.75;;
7487;SDS011;3785;52.260;4.728;2023-05-02T17:29:15;1.60;;;0.90;;
7487;SDS011;3785;52.260;4.728;2023-05-02T17:32:35;1.35;;;0.70;;
7487;SDS011;3785;52.260;4.728;2023-05-02T17:35:56;1.58;;;0.88;;
7487;SDS011;3785;52.260;4.728;2023-05-02T17:39:17;4.68;;;0.70;;
7487;SDS011;3785;52.260;4.728;2023-05-02T17:42:37;1.92;;;0.70;;
7487;SDS011;3785;52.260;4.728;2023-05-02T17:45:58;1.10;;;0.60;;
7487;SDS011;3785;52.260;4.728;2023-05-02T17:49:18;1.17;;;0.65;;
7487;SDS011;3785;52.260;4.728;2023-05-02T17:52:39;1.83;;;1.13;;
7487;SDS011;3785;52.260;4.728;2023-05-02T17:56:03;1.05;;;0.52;;
7487;SDS011;3785;52.260;4.728;2023-05-02T17:59:24;2.30;;;0.73;;
7487;SDS011;3785;52.260;4.728;2023-05-02T18:02:46;3.08;;;0.82;;
7487;SDS011;3785;52.260;4.728;2023-05-02T18:06:06;2.75;;;0.88;;
7487;SDS011;3785;52.260;4.728;2023-05-02T18:09:27;1.58;;;0.68;;
7487;SDS011;3785;52.260;4.728;2023-05-02T18:12:47;2.90;;;1.20;;
7487;SDS011;3785;52.260;4.728;2023-05-02T18:16:08;1.23;;;0.63;;
7487;SDS011;3785;52.260;4.728;2023-05-02T18:19:29;1.20;;;0.60;;
7487;SDS011;3785;52.260;4.728;2023-05-02T18:22:50;2.92;;;0.88;;
7487;SDS011;3785;52.260;4.728;2023-05-02T18:26:11;1.90;;;0.57;;
7487;SDS011;3785;52.260;4.728;2023-05-02T18:29:35;0.90;;;0.60;;
7487;SDS011;3785;52.260;4.728;2023-05-02T18:32:55;1.02;;;0.50;;
7487;SDS011;3785;52.260;4.728;2023-05-02T18:36:22;1.05;;;0.50;;
7487;SDS011;3785;52.260;4.728;2023-05-02T18:39:46;1.27;;;0.70;;
7487;SDS011;3785;52.260;4.728;2023-05-02T18:43:06;1.85;;;0.60;;
7487;SDS011;3785;52.260;4.728;2023-05-02T18:46:27;2.88;;;0.73;;
7487;SDS011;3785;52.260;4.728;2023-05-02T18:49:48;1.63;;;0.70;;
7487;SDS011;3785;52.260;4.728;2023-05-02T18:53:09;2.60;;;0.70;;
7487;SDS011;3785;52.260;4.728;2023-05-02T18:56:29;0.75;;;0.60;;
7487;SDS011;3785;52.260;4.728;2023-05-02T18:59:50;1.48;;;0.50;;
7487;SDS011;3785;52.260;4.728;2023-05-02T19:03:11;1.00;;;0.57;;
7487;SDS011;3785;52.260;4.728;2023-05-02T19:06:32;1.23;;;0.70;;
7487;SDS011;3785;52.260;4.728;2023-05-02T19:09:52;1.40;;;0.50;;
7487;SDS011;3785;52.260;4.728;2023-05-02T19:13:13;2.00;;;0.50;;
7487;SDS011;3785;52.260;4.728;2023-05-02T19:16:34;3.63;;;0.93;;
7487;SDS011;3785;52.260;4.728;2023-05-02T19:19:56;1.73;;;0.68;;
7487;SDS011;3785;52.260;4.728;2023-05-02T19:23:17;3.30;;;0.80;;
7487;SDS011;3785;52.260;4.728;2023-05-02T19:26:40;1.45;;;0.60;;
7487;SDS011;3785;52.260;4.728;2023-05-02T19:30:01;1.65;;;0.65;;
7487;SDS011;3785;52.260;4.728;2023-05-02T19:33:23;1.52;;;0.70;;
7487;SDS011;3785;52.260;4.728;2023-05-02T19:36:43;2.15;;;0.80;;
7487;SDS011;3785;52.260;4.728;2023-05-02T19:40:04;1.25;;;0.70;;
7487;SDS011;3785;52.260;4.728;2023-05-02T19:43:25;0.88;;;0.55;;
7487;SDS011;3785;52.260;4.728;2023-05-02T19:46:46;1.88;;;0.73;;
7487;SDS011;3785;52.260;4.728;2023-05-02T19:50:07;1.77;;;0.70;;
7487;SDS011;3785;52.260;4.728;2023-05-02T19:53:32;0.73;;;0.50;;
7487;SDS011;3785;52.260;4.728;2023-05-02T19:56:53;1.58;;;0.57;;
7487;SDS011;3785;52.260;4.728;2023-05-02T20:00:14;2.47;;;0.63;;
7487;SDS011;3785;52.260;4.728;2023-05-02T20:03:34;0.98;;;0.52;;
7487;SDS011;3785;52.260;4.728;2023-05-02T20:06:55;3.47;;;0.95;;
7487;SDS011;3785;52.260;4.728;2023-05-02T20:10:16;1.70;;;0.57;;
7487;SDS011;3785;52.260;4.728;2023-05-02T20:13:37;2.10;;;0.82;;
7487;SDS011;3785;52.260;4.728;2023-05-02T20:16:58;0.70;;;0.50;;
7487;SDS011;3785;52.260;4.728;2023-05-02T20:20:19;2.30;;;0.90;;
7487;SDS011;3785;52.260;4.728;2023-05-02T20:23:39;0.98;;;0.70;;
7487;SDS011;3785;52.260;4.728;2023-05-02T20:27:02;1.58;;;1.00;;
7487;SDS011;3785;52.260;4.728;2023-05-02T20:30:23;2.30;;;1.00;;
7487;SDS011;3785;52.260;4.728;2023-05-02T20:33:44;1.23;;;0.80;;
7487;SDS011;3785;52.260;4.728;2023-05-02T20:37:04;2.33;;;0.80;;
7487;SDS011;3785;52.260;4.728;2023-05-02T20:40:26;1.00;;;0.70;;
7487;SDS011;3785;52.260;4.728;2023-05-02T20:43:46;1.92;;;0.80;;
7487;SDS011;3785;52.260;4.728;2023-05-02T20:47:07;2.03;;;0.73;;
7487;SDS011;3785;52.260;4.728;2023-05-02T20:50:27;1.60;;;0.70;;
7487;SDS011;3785;52.260;4.728;2023-05-02T20:53:48;1.77;;;0.73;;
7487;SDS011;3785;52.260;4.728;2023-05-02T20:57:09;2.45;;;0.82;;
7487;SDS011;3785;52.260;4.728;2023-05-02T21:00:30;1.10;;;0.57;;
7487;SDS011;3785;52.260;4.728;2023-05-02T21:03:50;2.38;;;0.57;;
7487;SDS011;3785;52.260;4.728;2023-05-02T21:07:11;1.58;;;0.70;;
7487;SDS011;3785;52.260;4.728;2023-05-02T21:10:31;0.60;;;0.50;;
7487;SDS011;3785;52.260;4.728;2023-05-02T21:13:52;1.20;;;0.60;;
7487;SDS011;3785;52.260;4.728;2023-05-02T21:17:12;1.13;;;0.73;;
7487;SDS011;3785;52.260;4.728;2023-05-02T21:20:33;1.30;;;0.70;;
7487;SDS011;3785;52.260;4.728;2023-05-02T21:23:54;1.67;;;0.80;;
7487;SDS011;3785;52.260;4.728;2023-05-02T21:27:17;3.75;;;0.90;;